Time;durP1;ratioP1;P1;durP2;ratioP2;P2;SDS_P1;SDS_P2;PMS_P1;PMS_P2;Temp;Humidity;BMP_temperature;BMP_pressure;BME280_temperature;BME280_humidity;BME280_pressure;Samples;Min_cycle;Max_cycle;Signal;HPM_P1;HPM_P2
2022/01/24 00:01:25;;;;;;;14.75;11.07;;;5.50;99.90;;;;;;4917617;29;20064;-81
2022/01/24 00:03:56;;;;;;;13.50;10.63;;;5.50;99.90;;;;;;4949402;28;20123;-80
2022/01/24 00:06:23;;;;;;;15.40;11.15;;;5.50;99.90;;;;;;4935050;29;20040;-80
2022/01/24 00:08:49;;;;;;;14.30;11.40;;;5.50;99.90;;;;;;4948778;29;20047;-81
2022/01/24 00:11:19;;;;;;;15.80;11.40;;;5.50;99.90;;;;;;4947396;28;20487;-80
2022/01/24 00:16:34;;;;;;;13.23;10.20;;;5.50;99.90;;;;;;4934440;29;20044;-80
2022/01/24 00:27:00;;;;;;;13.85;10.50;;;5.60;99.90;;;;;;4946966;29;20035;-80
2022/01/24 00:29:27;;;;;;;12.52;9.68;;;5.50;99.90;;;;;;4901784;29;20047;-80
2022/01/24 00:31:54;;;;;;;12.80;10.10;;;5.50;99.90;;;;;;4934630;29;20040;-80
2022/01/24 00:34:20;;;;;;;13.73;10.38;;;5.50;99.90;;;;;;4947891;28;20095;-81
2022/01/24 00:36:47;;;;;;;12.30;10.20;;;5.50;99.90;;;;;;4913059;29;20052;-81
2022/01/24 00:39:13;;;;;;;15.82;10.80;;;5.40;99.90;;;;;;4934110;29;20062;-80
2022/01/24 00:47:01;;;;;;;12.85;10.43;;;5.40;99.90;;;;;;4949415;28;20049;-80
2022/01/24 00:54:55;;;;;;;15.35;11.82;;;5.40;99.90;;;;;;4933943;29;20036;-81
2022/01/24 00:57:21;;;;;;;15.55;10.93;;;5.30;99.90;;;;;;4935969;29;20046;-80
2022/01/24 00:59:49;;;;;;;16.05;11.20;;;5.30;99.90;;;;;;4919277;29;20051;-80
2022/01/24 01:02:15;;;;;;;16.83;12.13;;;5.30;99.90;;;;;;4951656;28;20032;-80
2022/01/24 01:18:15;;;;;;;15.52;12.00;;;5.40;99.90;;;;;;4937087;29;20040;-80
2022/01/24 01:23:18;;;;;;;17.83;12.90;;;5.30;99.90;;;;;;4951605;29;20043;-80
2022/01/24 01:25:45;;;;;;;16.48;12.80;;;5.30;99.90;;;;;;4946684;28;20036;-80
2022/01/24 01:28:12;;;;;;;15.93;12.90;;;5.30;99.90;;;;;;4953573;28;20043;-80
2022/01/24 01:30:43;;;;;;;18.42;13.73;;;5.30;99.90;;;;;;4935694;29;20110;-80
2022/01/24 01:33:19;;;;;;;17.70;13.85;;;5.30;99.90;;;;;;4936804;29;20066;-80
2022/01/24 01:57:15;;;;;;;18.30;14.77;;;5.30;99.90;;;;;;4931916;29;20048;-80
2022/01/24 01:59:42;;;;;;;19.33;15.57;;;5.20;99.90;;;;;;4942162;29;20067;-80
2022/01/24 02:02:08;;;;;;;19.80;16.45;;;5.20;99.90;;;;;;4951168;29;20082;-80
2022/01/24 02:04:34;;;;;;;22.40;17.20;;;5.20;99.90;;;;;;4951551;28;20050;-80
2022/01/24 02:07:00;;;;;;;23.88;17.77;;;5.20;99.90;;;;;;4935332;29;20047;-80
2022/01/24 02:09:31;;;;;;;22.98;18.30;;;5.20;99.90;;;;;;4948486;28;20035;-80
2022/01/24 02:11:57;;;;;;;23.90;18.05;;;5.30;99.90;;;;;;4947194;29;20044;-80
2022/01/24 02:14:29;;;;;;;22.27;17.15;;;5.30;99.90;;;;;;4920725;29;20122;-80
2022/01/24 02:17:02;;;;;;;21.58;16.40;;;5.30;99.90;;;;;;4937169;29;20459;-80
2022/01/24 02:19:52;;;;;;;21.23;17.33;;;5.20;99.90;;;;;;4949399;29;20035;-80
2022/01/24 02:22:41;;;;;;;23.90;18.10;;;5.20;99.90;;;;;;4932187;29;20039;-80
2022/01/24 02:25:11;;;;;;;21.70;17.60;;;5.30;99.90;;;;;;4932832;29;20044;-80
2022/01/24 02:27:45;;;;;;;22.98;17.48;;;5.30;99.90;;;;;;4951297;28;20472;-80
2022/01/24 02:30:24;;;;;;;22.73;17.88;;;5.30;99.90;;;;;;4947526;29;20040;-80
2022/01/24 02:32:50;;;;;;;24.02;18.85;;;5.30;99.90;;;;;;4949811;28;20054;-80
2022/01/24 02:35:16;;;;;;;23.40;18.70;;;5.30;99.90;;;;;;4945875;28;20039;-80
2022/01/24 02:37:41;;;;;;;23.15;18.20;;;5.30;99.90;;;;;;4916714;29;20048;-80
2022/01/24 02:40:15;;;;;;;24.80;18.05;;;5.30;99.90;;;;;;4916239;29;20047;-80
2022/01/24 02:48:26;;;;;;;29.35;19.95;;;5.30;99.90;;;;;;4932472;29;20058;-80
2022/01/24 02:53:38;;;;;;;25.88;19.85;;;5.30;99.90;;;;;;4947846;28;20130;-80
2022/01/24 02:56:05;;;;;;;24.55;19.63;;;5.30;99.90;;;;;;4951335;29;20051;-80
2022/01/24 02:58:31;;;;;;;28.02;21.70;;;5.30;99.90;;;;;;4949257;28;20086;-80
2022/01/24 03:00:57;;;;;;;28.92;20.88;;;5.30;99.90;;;;;;4949023;28;20043;-80
2022/01/24 03:03:23;;;;;;;25.77;20.35;;;5.30;99.90;;;;;;4929990;29;20039;-80
2022/01/24 03:05:49;;;;;;;26.60;21.08;;;5.30;99.90;;;;;;4930725;29;20046;-80
2022/01/24 03:08:15;;;;;;;25.70;20.90;;;5.20;99.90;;;;;;4918188;29;20072;-81
2022/01/24 03:10:46;;;;;;;27.83;21.38;;;5.30;99.90;;;;;;4928647;29;20036;-80
2022/01/24 03:15:43;;;;;;;24.92;19.95;;;5.20;99.90;;;;;;4931313;29;20047;-80
2022/01/24 03:18:10;;;;;;;27.25;20.45;;;5.20;99.90;;;;;;4947896;29;20047;-80
2022/01/24 03:20:37;;;;;;;26.27;21.25;;;5.20;99.90;;;;;;4929215;29;20043;-80
2022/01/24 03:23:03;;;;;;;26.73;20.55;;;5.20;99.90;;;;;;4933979;29;20047;-80
2022/01/24 03:25:29;;;;;;;24.73;20.38;;;5.20;99.90;;;;;;4935795;29;20031;-80
2022/01/24 03:27:55;;;;;;;27.52;19.77;;;5.20;99.90;;;;;;4950400;28;20071;-80
2022/01/24 03:30:22;;;;;;;24.40;19.17;;;5.20;99.90;;;;;;4930013;29;20119;-80
2022/01/24 03:32:48;;;;;;;21.67;18.33;;;5.10;99.90;;;;;;4950162;29;20087;-80
2022/01/24 03:35:14;;;;;;;26.83;17.85;;;5.10;99.90;;;;;;4932965;29;20043;-80
2022/01/24 03:37:40;;;;;;;23.70;17.80;;;5.10;99.90;;;;;;4931616;29;20122;-80
2022/01/24 03:40:06;;;;;;;21.10;17.70;;;5.20;99.90;;;;;;4947824;29;20047;-80
2022/01/24 03:42:32;;;;;;;20.55;15.30;;;5.20;99.90;;;;;;4933539;29;20051;-80
2022/01/24 03:45:02;;;;;;;18.42;14.45;;;5.20;99.90;;;;;;4916267;29;20047;-80
2022/01/24 03:50:17;;;;;;;21.98;16.42;;;5.20;99.90;;;;;;4915131;29;20056;-80
2022/01/24 03:52:46;;;;;;;20.23;16.15;;;5.20;99.90;;;;;;4930639;29;20094;-80
2022/01/24 03:55:12;;;;;;;20.02;15.63;;;5.20;99.90;;;;;;4943729;28;21069;-80
2022/01/24 03:57:38;;;;;;;19.00;15.02;;;5.20;99.90;;;;;;4949445;28;20046;-80
2022/01/24 04:00:06;;;;;;;19.33;14.90;;;5.20;99.90;;;;;;4945498;29;20573;-80
2022/01/24 04:02:32;;;;;;;17.90;14.40;;;5.20;99.90;;;;;;4915949;29;20122;-80
2022/01/24 04:04:58;;;;;;;16.95;13.60;;;5.20;99.90;;;;;;4944728;23;20198;-74
2022/01/24 04:07:24;;;;;;;14.73;10.90;;;5.20;99.90;;;;;;4940876;28;20453;-74
2022/01/24 04:09:50;;;;;;;15.98;11.55;;;5.20;99.90;;;;;;4908647;29;20518;-74
2022/01/24 04:12:16;;;;;;;16.73;13.13;;;5.20;99.90;;;;;;4923342;29;20048;-74
2022/01/24 04:17:39;;;;;;;16.33;12.70;;;5.20;99.90;;;;;;4883828;29;20123;-74
2022/01/24 04:22:51;;;;;;;15.85;13.38;;;5.20;99.90;;;;;;4908071;29;20048;-74
2022/01/24 04:25:22;;;;;;;17.75;13.63;;;5.20;99.90;;;;;;4909740;29;20115;-74
2022/01/24 04:27:49;;;;;;;16.48;13.80;;;5.20;99.90;;;;;;4909999;29;20040;-74
2022/01/24 04:30:15;;;;;;;18.52;14.07;;;5.20;99.90;;;;;;4924578;29;20044;-74
2022/01/24 04:32:40;;;;;;;16.55;14.15;;;5.20;99.90;;;;;;4925903;29;20727;-74
2022/01/24 04:35:07;;;;;;;17.35;14.20;;;5.20;99.90;;;;;;4911938;29;20039;-74
2022/01/24 04:37:32;;;;;;;21.83;16.33;;;5.20;99.90;;;;;;4893846;29;20135;-74
2022/01/24 04:39:58;;;;;;;23.08;18.63;;;5.20;99.90;;;;;;4912320;29;20458;-73
2022/01/24 04:42:34;;;;;;;26.83;19.00;;;5.20;99.90;;;;;;4924231;29;20103;-73
2022/01/24 04:55:51;;;;;;;20.20;16.17;;;5.20;99.90;;;;;;4911015;29;20051;-73
2022/01/24 04:58:17;;;;;;;23.55;17.38;;;5.20;99.90;;;;;;4907419;29;20475;-74
2022/01/24 05:00:43;;;;;;;24.67;18.23;;;5.20;99.90;;;;;;4925181;29;20047;-74
2022/01/24 05:03:08;;;;;;;25.10;19.27;;;5.20;99.90;;;;;;4924569;29;20403;-74
2022/01/24 05:05:34;;;;;;;25.08;18.38;;;5.20;99.90;;;;;;4907478;29;20090;-74
2022/01/24 05:08:04;;;;;;;24.25;18.35;;;5.20;99.90;;;;;;4924954;29;20499;-73
2022/01/24 05:10:39;;;;;;;20.67;15.90;;;5.20;99.90;;;;;;4907508;29;20040;-73
2022/01/24 05:23:55;;;;;;;23.25;16.33;;;5.10;99.90;;;;;;4925419;29;20178;-73
2022/01/24 05:26:20;;;;;;;25.90;17.10;;;5.10;99.90;;;;;;4927696;29;20510;-73
2022/01/24 05:28:46;;;;;;;23.65;17.90;;;5.10;99.90;;;;;;4925565;29;20127;-73
2022/01/24 05:31:11;;;;;;;20.70;16.70;;;5.10;99.90;;;;;;4925978;29;20051;-73
2022/01/24 05:33:37;;;;;;;24.42;17.30;;;5.10;99.90;;;;;;4908250;29;20075;-73
2022/01/24 05:36:03;;;;;;;22.25;16.77;;;5.10;99.90;;;;;;4909300;29;20114;-73
2022/01/24 05:38:28;;;;;;;25.13;18.40;;;5.10;99.90;;;;;;4923201;29;21460;-73
2022/01/24 05:40:54;;;;;;;28.27;19.00;;;5.10;99.90;;;;;;4923707;29;20059;-73
2022/01/24 05:43:20;;;;;;;32.90;24.27;;;5.10;99.90;;;;;;4910178;29;20047;-73
2022/01/24 05:45:46;;;;;;;25.58;18.38;;;5.10;99.90;;;;;;4896716;29;20431;-73
2022/01/24 05:48:11;;;;;;;24.70;18.40;;;5.10;99.90;;;;;;4925234;29;20036;-73
2022/01/24 05:50:38;;;;;;;25.80;19.48;;;5.10;99.90;;;;;;4910540;29;20055;-73
2022/01/24 05:53:03;;;;;;;22.15;17.50;;;5.10;99.90;;;;;;4907930;29;20422;-73
2022/01/24 05:55:29;;;;;;;33.03;23.23;;;5.10;99.90;;;;;;4910070;29;20479;-73
2022/01/24 05:57:55;;;;;;;32.83;23.42;;;5.10;99.90;;;;;;4941870;28;20044;-73
2022/01/24 06:00:22;;;;;;;33.47;24.08;;;5.00;99.90;;;;;;4909004;29;20051;-73
2022/01/24 06:02:49;;;;;;;33.63;24.33;;;5.00;99.90;;;;;;4923128;29;20383;-74
2022/01/24 06:05:14;;;;;;;32.10;23.60;;;5.00;99.90;;;;;;4907038;29;20032;-74
2022/01/24 06:07:40;;;;;;;38.63;27.05;;;5.00;99.90;;;;;;4907272;29;20040;-74
2022/01/24 06:10:06;;;;;;;35.90;25.55;;;5.00;99.90;;;;;;4916857;29;20072;-74
2022/01/24 06:12:32;;;;;;;48.97;32.78;;;5.00;99.90;;;;;;4939189;28;20052;-74
2022/01/24 06:14:58;;;;;;;52.00;34.35;;;5.00;99.90;;;;;;4923934;29;20096;-74
2022/01/24 06:17:24;;;;;;;30.02;20.92;;;5.00;99.90;;;;;;4907079;29;20041;-73
2022/01/24 06:19:50;;;;;;;43.45;27.48;;;5.00;99.90;;;;;;4924830;29;20035;-73
2022/01/24 06:22:15;;;;;;;44.72;29.90;;;5.00;99.90;;;;;;4909793;29;20076;-73
2022/01/24 06:24:41;;;;;;;34.58;22.98;;;5.10;99.90;;;;;;4909295;29;20040;-73
2022/01/24 06:27:07;;;;;;;35.00;24.40;;;5.10;99.90;;;;;;4923432;29;20084;-73
2022/01/24 06:29:32;;;;;;;37.53;24.35;;;5.10;99.90;;;;;;4923954;29;20047;-73
2022/01/24 06:31:58;;;;;;;35.58;25.55;;;5.10;99.90;;;;;;4909292;29;20040;-73
2022/01/24 06:34:24;;;;;;;35.30;25.75;;;5.10;99.90;;;;;;4926824;29;20063;-73
2022/01/24 06:36:49;;;;;;;40.78;26.77;;;5.00;99.90;;;;;;4909475;29;20043;-73
2022/01/24 06:39:15;;;;;;;39.50;26.25;;;5.10;99.90;;;;;;4927484;29;20092;-72
2022/01/24 06:41:43;;;;;;;40.35;26.80;;;5.00;99.90;;;;;;4909235;29;20043;-73
2022/01/24 06:44:08;;;;;;;39.42;26.80;;;5.00;99.90;;;;;;4941046;28;20059;-73
2022/01/24 06:46:34;;;;;;;39.90;27.63;;;5.00;99.90;;;;;;4925172;29;20044;-73
2022/01/24 06:49:00;;;;;;;42.40;27.55;;;5.00;99.90;;;;;;4924457;29;20096;-73
2022/01/24 06:51:27;;;;;;;39.20;26.60;;;5.00;99.90;;;;;;4910918;29;20047;-73
2022/01/24 06:53:55;;;;;;;49.88;31.92;;;5.00;99.90;;;;;;4911717;29;20119;-73
2022/01/24 06:56:20;;;;;;;39.95;26.42;;;5.00;99.90;;;;;;4924405;29;20111;-73
2022/01/24 06:58:46;;;;;;;42.75;27.50;;;5.00;99.90;;;;;;4912578;29;20115;-73
2022/01/24 07:01:12;;;;;;;41.78;28.42;;;5.00;99.90;;;;;;4910341;29;20051;-73
2022/01/24 07:03:38;;;;;;;44.95;29.83;;;5.00;99.90;;;;;;4900849;29;20493;-73
2022/01/24 07:06:03;;;;;;;53.08;33.15;;;5.00;99.90;;;;;;4900610;29;20060;-73
2022/01/24 07:08:29;;;;;;;47.30;30.80;;;5.00;99.90;;;;;;4904602;29;20034;-73
2022/01/24 07:10:55;;;;;;;48.55;30.73;;;5.00;99.90;;;;;;4894280;29;20047;-73
2022/01/24 07:13:21;;;;;;;49.85;33.13;;;5.00;99.90;;;;;;4909841;29;20046;-72
2022/01/24 07:15:58;;;;;;;61.35;38.78;;;5.00;99.90;;;;;;4906978;29;20426;-72
2022/01/24 07:20:52;;;;;;;46.60;29.52;;;4.90;99.90;;;;;;4912107;29;20127;-73
2022/01/24 07:23:18;;;;;;;47.95;29.60;;;5.00;99.90;;;;;;4908150;29;20107;-73
2022/01/24 07:25:44;;;;;;;64.70;39.95;;;5.00;99.90;;;;;;4923179;29;20052;-72
2022/01/24 07:28:10;;;;;;;72.90;45.42;;;5.00;99.90;;;;;;4892712;29;20049;-72
2022/01/24 07:30:35;;;;;;;74.75;46.22;;;5.00;99.90;;;;;;4893244;29;20063;-72
2022/01/24 07:33:01;;;;;;;86.05;51.35;;;5.00;99.90;;;;;;4920477;29;20094;-72
2022/01/24 07:35:27;;;;;;;87.57;54.40;;;5.00;99.90;;;;;;4923232;29;20076;-72
2022/01/24 07:37:52;;;;;;;89.75;51.35;;;5.00;99.90;;;;;;4906318;29;20028;-72
2022/01/24 07:40:20;;;;;;;81.40;50.25;;;5.00;99.90;;;;;;4922752;29;20157;-73
2022/01/24 07:42:58;;;;;;;81.97;52.03;;;5.00;99.90;;;;;;4906540;29;20115;-73
2022/01/24 07:45:25;;;;;;;85.95;51.78;;;5.00;99.90;;;;;;4924776;29;20183;-72
2022/01/24 07:47:52;;;;;;;82.72;51.17;;;5.00;99.90;;;;;;4923951;29;20071;-73
2022/01/24 07:50:22;;;;;;;85.90;51.85;;;5.00;99.90;;;;;;4905058;29;20048;-73
2022/01/24 07:52:47;;;;;;;85.38;52.05;;;5.00;99.90;;;;;;4922659;29;20043;-72
2022/01/24 07:55:13;;;;;;;83.20;52.25;;;5.00;99.90;;;;;;4939388;28;20040;-73
2022/01/24 07:57:38;;;;;;;88.45;52.83;;;5.00;99.90;;;;;;4908059;29;20075;-73
2022/01/24 08:00:06;;;;;;;85.28;52.72;;;5.00;99.90;;;;;;4904534;29;20040;-72
2022/01/24 08:02:33;;;;;;;86.00;52.83;;;5.10;99.90;;;;;;4905657;29;20779;-72
2022/01/24 08:04:58;;;;;;;91.90;54.38;;;5.10;99.90;;;;;;4924055;29;20051;-72
2022/01/24 08:07:24;;;;;;;84.65;53.78;;;5.10;99.90;;;;;;4922085;29;20044;-72
2022/01/24 08:09:49;;;;;;;86.22;52.70;;;5.10;99.90;;;;;;4924036;29;20044;-72
2022/01/24 08:12:17;;;;;;;86.88;52.70;;;5.10;99.90;;;;;;4906607;29;20068;-72
2022/01/24 08:14:43;;;;;;;81.72;52.22;;;5.10;99.90;;;;;;4908761;29;20110;-73
2022/01/24 08:17:08;;;;;;;84.95;53.67;;;5.10;99.90;;;;;;4908187;29;20083;-71
2022/01/24 08:19:34;;;;;;;82.75;53.40;;;5.10;99.90;;;;;;4917442;29;20041;-73
2022/01/24 08:22:00;;;;;;;84.10;51.67;;;5.20;99.90;;;;;;4921745;29;20079;-72
2022/01/24 08:24:26;;;;;;;89.85;54.60;;;5.20;99.90;;;;;;4906706;29;20040;-72
2022/01/24 08:26:51;;;;;;;83.75;53.50;;;5.20;99.90;;;;;;4892155;29;20490;-72
2022/01/24 08:29:17;;;;;;;83.97;52.92;;;5.20;99.90;;;;;;4921841;29;20713;-74
2022/01/24 08:31:43;;;;;;;83.95;53.17;;;5.20;99.90;;;;;;4905334;29;20536;-73
2022/01/24 08:34:09;;;;;;;83.03;53.63;;;5.20;99.90;;;;;;4904829;29;20687;-74
2022/01/24 08:36:35;;;;;;;87.88;53.72;;;5.20;99.90;;;;;;4905884;29;20411;-73
2022/01/24 08:39:07;;;;;;;87.63;54.08;;;5.20;99.90;;;;;;4908978;29;20131;-73
2022/01/24 08:41:48;;;;;;;83.75;52.63;;;5.20;99.90;;;;;;4907822;29;20043;-73
2022/01/24 08:46:50;;;;;;;84.20;54.10;;;5.20;99.90;;;;;;4921420;29;20046;-73
2022/01/24 08:49:16;;;;;;;81.95;52.88;;;5.30;99.90;;;;;;4905189;29;20056;-73
2022/01/24 08:51:42;;;;;;;84.38;51.83;;;5.30;99.90;;;;;;4906914;29;20047;-78
2022/01/24 08:54:09;;;;;;;83.38;51.92;;;5.30;99.90;;;;;;4910597;29;20119;-74
2022/01/24 08:56:35;;;;;;;86.20;53.38;;;5.20;99.90;;;;;;4925149;29;20043;-73
2022/01/24 08:59:02;;;;;;;85.53;54.28;;;5.30;99.90;;;;;;4912559;29;20044;-73
2022/01/24 09:01:28;;;;;;;85.63;52.60;;;5.30;99.90;;;;;;4913392;29;20051;-72
2022/01/24 09:03:54;;;;;;;86.63;52.55;;;5.30;99.90;;;;;;4926999;29;20044;-72
2022/01/24 09:06:21;;;;;;;83.45;52.80;;;5.30;99.90;;;;;;4919754;29;20055;-72
2022/01/24 09:08:55;;;;;;;86.82;53.70;;;5.30;99.90;;;;;;4916273;29;20054;-72
2022/01/24 09:11:23;;;;;;;85.32;53.28;;;5.30;99.90;;;;;;4932588;29;20052;-71
2022/01/24 09:13:50;;;;;;;77.43;50.53;;;5.30;99.90;;;;;;4907967;29;20036;-72
2022/01/24 09:16:16;;;;;;;81.95;52.78;;;5.40;99.90;;;;;;4902434;29;20036;-72
2022/01/24 09:18:41;;;;;;;78.38;50.90;;;5.40;99.90;;;;;;4909100;29;20067;-73
2022/01/24 09:21:07;;;;;;;81.75;51.85;;;5.40;99.90;;;;;;4901161;29;20051;-71
2022/01/24 09:23:33;;;;;;;82.22;51.05;;;5.40;99.90;;;;;;4900497;29;20052;-71
2022/01/24 09:25:59;;;;;;;76.82;49.85;;;5.40;99.90;;;;;;4901155;29;20048;-71
2022/01/24 09:28:25;;;;;;;78.68;50.00;;;5.40;99.90;;;;;;4915762;29;20051;-71
2022/01/24 09:30:51;;;;;;;79.40;49.17;;;5.50;99.90;;;;;;4900148;29;20040;-72
2022/01/24 09:33:17;;;;;;;79.47;50.55;;;5.50;99.90;;;;;;4930338;29;20048;-71
2022/01/24 09:35:44;;;;;;;72.70;48.17;;;5.50;99.90;;;;;;4947049;28;20040;-71
2022/01/24 09:38:10;;;;;;;76.45;49.50;;;5.50;99.90;;;;;;4916745;29;20039;-72
2022/01/24 09:40:37;;;;;;;72.43;48.70;;;5.50;99.90;;;;;;4901193;29;20086;-72
2022/01/24 09:43:03;;;;;;;80.53;49.50;;;5.50;99.90;;;;;;4932646;29;20087;-72
2022/01/24 09:45:29;;;;;;;78.20;49.83;;;5.50;99.90;;;;;;4937773;29;20064;-72
2022/01/24 09:47:57;;;;;;;76.13;49.40;;;5.50;99.90;;;;;;4900245;29;20074;-72
2022/01/24 09:50:23;;;;;;;76.15;48.58;;;5.50;99.90;;;;;;4907875;29;20063;-71
2022/01/24 09:52:50;;;;;;;77.53;50.08;;;5.50;99.90;;;;;;4916667;29;20076;-72
2022/01/24 09:55:20;;;;;;;76.80;48.90;;;5.40;99.90;;;;;;4914419;29;20040;-71
2022/01/24 09:57:49;;;;;;;74.68;48.42;;;5.50;99.90;;;;;;4916863;29;20047;-72
2022/01/24 10:00:19;;;;;;;75.10;48.35;;;5.50;99.90;;;;;;4916303;29;20127;-71
2022/01/24 10:02:47;;;;;;;76.72;48.78;;;5.50;99.90;;;;;;4897306;29;20044;-72
2022/01/24 10:05:23;;;;;;;76.43;49.40;;;5.50;99.90;;;;;;4915325;29;20050;-72
2022/01/24 10:08:00;;;;;;;72.40;47.80;;;5.50;99.90;;;;;;4931275;29;20436;-72
2022/01/24 10:10:47;;;;;;;77.05;50.38;;;5.50;99.90;;;;;;4914737;29;20459;-73
2022/01/24 10:17:04;;;;;;;77.05;49.33;;;5.50;99.90;;;;;;4928928;29;20332;-72
2022/01/24 10:19:19;;;;;;;73.20;48.25;;;5.60;99.90;;;;;;4911679;29;20048;-72
2022/01/24 10:21:51;;;;;;;78.20;49.15;;;5.50;99.90;;;;;;4914445;29;20048;-72
2022/01/24 10:24:41;;;;;;;74.35;47.17;;;5.60;99.90;;;;;;4931026;29;20051;-72
2022/01/24 10:27:12;;;;;;;86.28;48.78;;;5.60;99.90;;;;;;4942127;29;20044;-73
2022/01/24 10:29:45;;;;;;;79.03;48.92;;;5.60;99.90;;;;;;4915780;29;20099;-72
2022/01/24 10:32:27;;;;;;;;;;;5.60;99.90;;;;;;4899863;29;20127;-71
2022/01/24 10:34:52;;;;;;;79.75;48.67;;;5.60;99.90;;;;;;4931247;29;19959;-71
2022/01/24 10:37:21;;;;;;;77.82;46.88;;;5.60;99.90;;;;;;4914598;29;20498;-72
2022/01/24 10:39:56;;;;;;;68.97;45.13;;;5.60;99.90;;;;;;4915465;29;20040;-71
2022/01/24 10:45:21;;;;;;;63.28;43.38;;;5.70;99.90;;;;;;4940973;29;20113;-72
2022/01/24 10:47:50;;;;;;;65.47;44.50;;;5.70;99.90;;;;;;4928105;29;20083;-72
2022/01/24 10:50:28;;;;;;;59.75;41.15;;;5.70;99.90;;;;;;4929363;29;20044;-71
2022/01/24 10:52:56;;;;;;;58.50;39.97;;;5.60;99.90;;;;;;4929861;29;20064;-72
2022/01/24 10:55:28;;;;;;;56.10;39.13;;;5.60;99.90;;;;;;4915082;29;20083;-72
2022/01/24 10:58:04;;;;;;;49.40;36.53;;;5.70;99.90;;;;;;4913832;29;20380;-72
2022/01/24 11:00:30;;;;;;;54.25;39.35;;;5.70;99.90;;;;;;4899638;29;20324;-71
2022/01/24 11:03:02;;;;;;;52.60;37.97;;;5.70;99.90;;;;;;4912785;29;20044;-72
2022/01/24 11:05:39;;;;;;;49.08;36.28;;;5.70;99.90;;;;;;4913234;29;20546;-72
2022/01/24 11:08:18;;;;;;;50.42;36.33;;;5.60;99.90;;;;;;4939526;28;20056;-72
2022/01/24 11:10:51;;;;;;;52.00;36.65;;;5.60;99.90;;;;;;4898860;29;20044;-72
2022/01/24 11:13:19;;;;;;;48.15;36.38;;;5.60;99.90;;;;;;4914222;29;20040;-72
2022/01/24 11:15:56;;;;;;;53.17;37.50;;;5.60;99.90;;;;;;4931098;29;20135;-72
2022/01/24 11:18:24;;;;;;;47.10;35.72;;;5.60;99.90;;;;;;4913558;29;20036;-72
2022/01/24 11:20:51;;;;;;;52.22;37.88;;;5.60;99.90;;;;;;4894969;29;20082;-73
2022/01/24 11:23:21;;;;;;;49.13;37.42;;;5.60;99.90;;;;;;4928239;29;20072;-73
2022/01/24 11:25:48;;;;;;;49.67;36.00;;;5.60;99.90;;;;;;4933643;29;20036;-72
2022/01/24 11:28:13;;;;;;;46.63;35.67;;;5.60;99.90;;;;;;4913033;29;20051;-72
2022/01/24 11:31:05;;;;;;;47.45;35.60;;;5.60;99.90;;;;;;4924628;29;20490;-72
2022/01/24 11:33:38;;;;;;;44.88;35.20;;;5.60;99.90;;;;;;4922135;29;20529;-72
2022/01/24 11:36:09;;;;;;;44.28;34.45;;;5.60;99.90;;;;;;4928835;29;20084;-72
2022/01/24 11:38:42;;;;;;;43.42;31.77;;;5.70;99.90;;;;;;4927163;29;20494;-72
2022/01/24 11:41:24;;;;;;;41.55;32.83;;;5.60;99.90;;;;;;4926449;29;20443;-72
2022/01/24 11:43:54;;;;;;;47.15;35.15;;;5.60;99.90;;;;;;4935068;29;20048;-72
2022/01/24 11:46:42;;;;;;;42.15;33.63;;;5.60;99.90;;;;;;4911869;29;20495;-72
2022/01/24 11:49:17;;;;;;;49.33;36.95;;;5.70;99.90;;;;;;4928085;29;20471;-72
2022/01/24 11:51:47;;;;;;;47.35;37.00;;;5.70;99.90;;;;;;4927186;29;20554;-73
2022/01/24 11:54:43;;;;;;;43.30;33.20;;;5.70;99.90;;;;;;4911879;29;20048;-69
2022/01/24 11:57:26;;;;;;;47.58;34.88;;;5.70;99.90;;;;;;4897506;29;20048;-72
2022/01/24 12:00:03;;;;;;;46.50;35.03;;;5.60;99.90;;;;;;4944322;28;20047;-70
2022/01/24 12:02:31;;;;;;;49.58;36.42;;;5.60;99.90;;;;;;4922792;29;20767;-71
2022/01/24 12:05:00;;;;;;;48.30;36.60;;;5.60;99.90;;;;;;4913386;29;20040;-70
2022/01/24 12:07:29;;;;;;;48.10;37.03;;;5.60;99.90;;;;;;4909174;29;20391;-71
2022/01/24 12:10:15;;;;;;;46.42;33.97;;;5.60;99.90;;;;;;4911049;29;20410;-71
2022/01/24 12:12:48;;;;;;;49.78;37.70;;;5.60;99.90;;;;;;4923957;29;20494;-70
2022/01/24 12:15:56;;;;;;;49.17;35.03;;;5.60;99.90;;;;;;4932061;29;20403;-70
2022/01/24 12:18:28;;;;;;;50.40;38.25;;;5.70;99.90;;;;;;4899468;29;20112;-70
2022/01/24 12:20:54;;;;;;;;;;;5.60;99.90;;;;;;4921396;29;20489;-71
2022/01/24 12:23:20;;;;;;;52.40;35.92;;;5.50;99.90;;;;;;4921871;29;20019;-70
2022/01/24 12:26:08;;;;;;;48.47;36.75;;;5.60;99.90;;;;;;4919053;29;20040;-71
2022/01/24 12:28:42;;;;;;;48.03;36.08;;;5.60;99.90;;;;;;4908659;29;20494;-72
2022/01/24 12:31:19;;;;;;;38.92;30.63;;;5.50;99.90;;;;;;4920307;29;20040;-71
2022/01/24 12:33:58;;;;;;;35.58;30.02;;;5.50;99.90;;;;;;4920530;29;20040;-71
2022/01/24 12:36:48;;;;;;;39.00;31.23;;;5.50;99.90;;;;;;4928796;29;20517;-70
2022/01/24 12:39:25;;;;;;;37.72;30.75;;;5.40;99.90;;;;;;4920881;29;20063;-70
2022/01/24 12:41:59;;;;;;;33.95;29.33;;;5.30;99.90;;;;;;4907543;29;20158;-70
2022/01/24 12:47:03;;;;;;;36.58;31.92;;;5.30;99.90;;;;;;4914610;29;20055;-70
2022/01/24 12:49:30;;;;;;;36.47;31.33;;;5.30;99.90;;;;;;4937189;28;20485;-72
2022/01/24 12:52:27;;;;;;;38.08;32.13;;;5.30;99.90;;;;;;4908338;29;20513;-70
2022/01/24 12:54:55;;;;;;;33.70;30.13;;;5.30;99.90;;;;;;4926234;29;20431;-70
2022/01/24 12:57:29;;;;;;;36.92;32.20;;;5.20;99.90;;;;;;4911512;29;20392;-70
2022/01/24 12:59:57;;;;;;;37.72;32.25;;;5.20;99.90;;;;;;4912738;29;20385;-71
2022/01/24 13:02:30;;;;;;;38.85;34.65;;;5.30;99.90;;;;;;4924295;29;20578;-70
2022/01/24 13:05:00;;;;;;;39.08;34.67;;;5.30;99.90;;;;;;4910719;29;20486;-71
2022/01/24 13:07:26;;;;;;;36.88;31.08;;;5.40;99.90;;;;;;4926025;29;21923;-70
2022/01/24 13:10:02;;;;;;;38.45;32.67;;;5.30;99.90;;;;;;4927514;29;20039;-70
2022/01/24 13:12:28;;;;;;;35.97;31.98;;;5.40;99.90;;;;;;4909923;29;20036;-71
2022/01/24 13:14:57;;;;;;;36.72;32.72;;;5.40;99.90;;;;;;4905730;29;20068;-70
2022/01/24 13:23:24;;;;;;;35.70;31.80;;;5.40;99.90;;;;;;4855926;29;20054;-71
2022/01/24 13:25:50;;;;;;;37.53;32.45;;;5.40;99.90;;;;;;4853630;29;20423;-71
2022/01/24 13:28:19;;;;;;;35.20;31.17;;;5.40;99.90;;;;;;4907577;29;20048;-72
2022/01/24 13:30:59;;;;;;;37.88;32.03;;;5.40;99.90;;;;;;4923997;29;22607;-71
2022/01/24 13:33:26;;;;;;;35.58;30.67;;;5.40;99.90;;;;;;4923441;29;20051;-71
2022/01/24 13:35:56;;;;;;;32.38;28.92;;;5.40;99.90;;;;;;4908366;29;20401;-71
2022/01/24 13:38:28;;;;;;;32.08;28.45;;;5.40;99.90;;;;;;4896585;29;20492;-71
2022/01/24 13:40:59;;;;;;;19.92;17.83;;;5.40;99.90;;;;;;4909237;29;20032;-71
2022/01/24 13:43:31;;;;;;;25.23;22.63;;;5.20;99.90;;;;;;4908470;29;20040;-71
2022/01/24 13:45:57;;;;;;;27.00;24.10;;;5.10;99.90;;;;;;4922865;29;20402;-71
2022/01/24 13:48:24;;;;;;;27.50;24.60;;;5.10;99.90;;;;;;4909293;29;20135;-72
2022/01/24 13:50:51;;;;;;;28.40;25.40;;;5.10;99.90;;;;;;4908935;29;20491;-70
2022/01/24 13:53:31;;;;;;;31.00;27.67;;;5.10;99.90;;;;;;4922282;29;20032;-70
2022/01/24 13:55:58;;;;;;;29.67;25.60;;;5.00;99.90;;;;;;4924019;29;20035;-70
2022/01/24 13:58:27;;;;;;;25.45;22.70;;;5.00;99.90;;;;;;4893968;29;20372;-72
2022/01/24 14:01:00;;;;;;;29.02;26.00;;;5.10;99.90;;;;;;4909457;29;20143;-72
2022/01/24 14:03:26;;;;;;;23.75;21.25;;;5.00;99.90;;;;;;4923821;29;20439;-71
2022/01/24 14:06:17;;;;;;;26.63;23.90;;;5.00;99.90;;;;;;4920070;29;20135;-72
2022/01/24 14:08:43;;;;;;;27.90;24.92;;;5.00;99.90;;;;;;4919197;29;20443;-72
2022/01/24 14:11:14;;;;;;;29.55;24.90;;;5.00;99.90;;;;;;4926246;29;20517;-73
2022/01/24 14:13:48;;;;;;;26.75;23.85;;;4.90;99.90;;;;;;4926021;29;20133;-70
2022/01/24 14:16:34;;;;;;;30.65;27.45;;;4.90;99.90;;;;;;4910074;29;20115;-72
2022/01/24 14:19:03;;;;;;;32.28;27.85;;;5.00;99.90;;;;;;4907679;29;20127;-72
2022/01/24 14:21:29;;;;;;;32.42;28.95;;;4.90;99.90;;;;;;4921355;29;20491;-72
2022/01/24 14:23:55;;;;;;;35.47;30.85;;;5.00;99.90;;;;;;4906195;29;20096;-71
2022/01/24 14:26:24;;;;;;;35.50;30.98;;;5.00;99.90;;;;;;4907236;29;20486;-72
2022/01/24 14:29:07;;;;;;;37.42;32.28;;;5.10;99.90;;;;;;4922598;29;20043;-72
2022/01/24 14:31:34;;;;;;;34.15;30.45;;;5.10;99.90;;;;;;4919937;29;20041;-72
2022/01/24 14:34:08;;;;;;;35.35;31.58;;;5.00;99.90;;;;;;4919664;29;20130;-71
2022/01/24 14:36:36;;;;;;;35.42;31.63;;;5.00;99.90;;;;;;4912978;29;20035;-71
2022/01/24 14:39:06;;;;;;;35.72;30.13;;;5.00;99.90;;;;;;4915276;29;20096;-71
2022/01/24 14:41:48;;;;;;;38.67;31.73;;;5.00;99.90;;;;;;4931596;29;20071;-71
2022/01/24 14:47:04;;;;;;;36.03;31.88;;;5.00;99.90;;;;;;4916566;29;20044;-71
2022/01/24 14:49:33;;;;;;;37.15;33.15;;;4.90;99.90;;;;;;4931090;29;20059;-71
2022/01/24 14:52:04;;;;;;;39.28;32.78;;;4.90;99.90;;;;;;4914575;29;20218;-71